Time;durP1;ratioP1;P1;durP2;ratioP2;P2;SDS_P1;SDS_P2;PMS_P1;PMS_P2;Temp;Humidity;BMP_temperature;BMP_pressure;BME280_temperature;BME280_humidity;BME280_pressure;Samples;Min_cycle;Max_cycle;Signal;HPM_P1;HPM_P2
2023/01/04 00:00:05;;;;;;;13.32;6.00;;;8.50;99.90;;;;;;5032180;28;20607;-69
2023/01/04 00:02:30;;;;;;;15.48;7.07;;;8.00;99.90;;;;;;5032358;28;20039;-69
2023/01/04 00:04:56;;;;;;;13.73;6.85;;;8.00;99.90;;;;;;5032126;28;20040;-69
2023/01/04 00:07:22;;;;;;;17.55;7.07;;;7.90;99.90;;;;;;5024097;28;20495;-67
2023/01/04 00:09:48;;;;;;;15.05;7.20;;;7.90;99.90;;;;;;5012329;28;20055;-68
2023/01/04 00:12:13;;;;;;;14.38;8.07;;;7.90;99.90;;;;;;5031179;28;20037;-68
2023/01/04 00:14:39;;;;;;;16.65;7.20;;;7.90;99.90;;;;;;5029796;28;20037;-67
2023/01/04 00:17:04;;;;;;;14.05;7.25;;;7.70;99.90;;;;;;5029050;28;20033;-67
2023/01/04 00:19:30;;;;;;;13.55;7.38;;;7.80;99.90;;;;;;5029666;28;20602;-69
2023/01/04 00:21:56;;;;;;;13.10;7.55;;;7.60;99.90;;;;;;5031322;28;20034;-70
2023/01/04 00:24:21;;;;;;;19.67;8.43;;;7.90;99.90;;;;;;5031878;28;20045;-70
2023/01/04 00:26:47;;;;;;;20.02;8.07;;;8.40;99.90;;;;;;5026179;28;20100;-69
2023/01/04 00:29:13;;;;;;;13.30;7.32;;;7.80;99.90;;;;;;5012711;28;20044;-70
2023/01/04 00:31:39;;;;;;;10.80;6.75;;;8.50;99.90;;;;;;5031724;28;20060;-71
2023/01/04 00:34:05;;;;;;;11.93;7.05;;;8.20;99.90;;;;;;5031022;28;20112;-70
2023/01/04 00:36:32;;;;;;;13.68;7.05;;;7.90;99.90;;;;;;4997414;28;20045;-67
2023/01/04 00:39:13;;;;;;;14.38;7.15;;;8.30;99.90;;;;;;5030497;28;20037;-69
2023/01/04 00:41:43;;;;;;;16.60;7.22;;;7.90;99.90;;;;;;5031473;28;20045;-69
2023/01/04 00:44:10;;;;;;;14.05;7.25;;;8.10;99.90;;;;;;5020174;28;20121;-69
2023/01/04 00:46:37;;;;;;;17.42;6.85;;;8.40;99.90;;;;;;5031262;28;20539;-69
2023/01/04 00:49:03;;;;;;;15.07;7.55;;;8.00;99.90;;;;;;5030653;28;20088;-70
2023/01/04 00:51:30;;;;;;;20.30;9.60;;;8.00;99.90;;;;;;5028523;28;20391;-70
2023/01/04 00:53:57;;;;;;;11.13;7.53;;;8.00;99.90;;;;;;5020618;28;20517;-70
2023/01/04 00:56:23;;;;;;;11.82;6.68;;;8.60;99.90;;;;;;5028083;28;20038;-70
2023/01/04 00:58:52;;;;;;;13.95;7.78;;;8.30;99.90;;;;;;5005014;28;20048;-69
2023/01/04 01:01:17;;;;;;;14.23;8.20;;;8.20;99.90;;;;;;5030629;28;20091;-70
2023/01/04 01:03:43;;;;;;;14.80;7.70;;;8.50;99.90;;;;;;5029011;28;20037;-70
2023/01/04 01:06:11;;;;;;;11.43;7.00;;;;;;;;;;5027017;28;20536;-71
2023/01/04 01:08:36;;;;;;;13.48;6.30;;;8.70;99.90;;;;;;4999039;28;20072;-70
2023/01/04 01:11:09;;;;;;;13.70;7.85;;;8.10;99.90;;;;;;4994975;28;20538;-71
2023/01/04 01:13:36;;;;;;;11.32;6.32;;;;;;;;;;5029448;28;20044;-70
2023/01/04 01:16:07;;;;;;;11.88;7.40;;;8.00;99.90;;;;;;5030682;28;20044;-71
2023/01/04 01:18:34;;;;;;;14.88;6.93;;;8.50;99.90;;;;;;5027886;28;20106;-71
2023/01/04 01:20:59;;;;;;;10.68;6.82;;;7.90;99.90;;;;;;5030840;28;20121;-70
2023/01/04 01:23:25;;;;;;;16.42;7.63;;;8.40;99.90;;;;;;5030733;28;20121;-70
2023/01/04 01:25:51;;;;;;;12.60;6.82;;;8.20;99.90;;;;;;5020613;28;20071;-71
2023/01/04 01:28:16;;;;;;;11.73;6.47;;;8.20;99.90;;;;;;5020719;28;20045;-70
2023/01/04 01:30:42;;;;;;;16.48;7.05;;;7.90;99.90;;;;;;5004002;28;20033;-70
2023/01/04 01:33:09;;;;;;;14.15;8.05;;;7.70;99.90;;;;;;5027200;28;20040;-70
2023/01/04 01:35:35;;;;;;;13.40;7.20;;;8.50;99.90;;;;;;5030228;28;20515;-69
2023/01/04 01:38:00;;;;;;;13.55;6.75;;;8.60;99.90;;;;;;5025766;28;20029;-70
2023/01/04 01:40:27;;;;;;;10.20;6.50;;;8.70;99.90;;;;;;5024830;28;20526;-70
2023/01/04 01:42:53;;;;;;;11.27;6.43;;;;;;;;;;5024806;28;20041;-70
2023/01/04 01:45:32;;;;;;;13.45;6.32;;;8.30;99.90;;;;;;5006871;28;20104;-69
2023/01/04 01:48:09;;;;;;;9.70;5.32;;;8.70;99.90;;;;;;5016444;28;20033;-69
2023/01/04 01:50:49;;;;;;;10.82;6.45;;;8.40;99.90;;;;;;5030354;28;20037;-70
2023/01/04 01:53:15;;;;;;;14.85;7.15;;;8.60;99.90;;;;;;5007437;28;20116;-70
2023/01/04 01:55:43;;;;;;;9.75;4.90;;;8.70;99.90;;;;;;5022429;28;20730;-69
2023/01/04 01:58:16;;;;;;;10.00;5.22;;;7.90;99.90;;;;;;5015260;28;20042;-70
2023/01/04 02:00:42;;;;;;;9.20;5.45;;;8.40;99.90;;;;;;5015606;28;20095;-70
2023/01/04 02:03:36;;;;;;;9.07;5.20;;;8.00;99.90;;;;;;5027674;28;20038;-70
2023/01/04 02:06:06;;;;;;;9.18;4.20;;;8.30;99.90;;;;;;5004648;28;20099;-70
2023/01/04 02:08:32;;;;;;;7.88;4.97;;;8.10;99.90;;;;;;5029115;28;20107;-70
2023/01/04 02:10:58;;;;;;;8.45;5.18;;;;;;;;;;5012431;28;20049;-70
2023/01/04 02:14:25;;;;;;;8.15;4.35;;;8.90;99.90;;;;;;5029602;28;20042;-70
2023/01/04 02:16:26;;;;;;;9.75;5.25;;;8.80;99.90;;;;;;5029622;28;20045;-70
2023/01/04 02:19:05;;;;;;;10.60;5.10;;;8.50;99.90;;;;;;5027806;28;20126;-69
2023/01/04 02:21:57;;;;;;;8.20;4.75;;;8.90;99.90;;;;;;5022312;28;20048;-70
2023/01/04 02:24:40;;;;;;;7.45;4.63;;;9.00;99.90;;;;;;5028312;28;20574;-69
2023/01/04 02:27:37;;;;;;;6.63;4.10;;;8.20;99.90;;;;;;5009700;28;20034;-70
2023/01/04 02:30:30;;;;;;;7.47;3.90;;;9.00;99.90;;;;;;5033964;28;20072;-70
2023/01/04 02:33:07;;;;;;;8.55;4.05;;;8.40;99.90;;;;;;5004343;28;20048;-69
2023/01/04 02:35:56;;;;;;;12.60;5.03;;;;;;;;;;5032321;28;20049;-70
2023/01/04 02:38:32;;;;;;;8.57;4.47;;;8.80;99.90;;;;;;5000889;28;20112;-70
2023/01/04 02:41:10;;;;;;;8.68;4.28;;;9.10;99.90;;;;;;5010893;28;20041;-70
2023/01/04 02:46:32;;;;;;;7.82;4.50;;;8.50;99.90;;;;;;5003301;28;20041;-71
2023/01/04 02:51:44;;;;;;;9.07;4.88;;;8.30;99.90;;;;;;5032833;28;20045;-71
2023/01/04 02:54:13;;;;;;;8.52;4.35;;;9.00;99.90;;;;;;5033241;28;20563;-70
2023/01/04 02:57:09;;;;;;;5.97;3.17;;;9.00;99.90;;;;;;5015412;28;20048;-70
2023/01/04 02:59:54;;;;;;;7.30;4.30;;;8.30;99.90;;;;;;5032825;28;20483;-70
2023/01/04 03:06:17;;;;;;;8.77;4.28;;;8.70;99.90;;;;;;5023375;28;20392;-72
2023/01/04 03:08:57;;;;;;;8.10;4.50;;;8.80;99.90;;;;;;5017377;28;20030;-71
2023/01/04 03:14:26;;;;;;;8.23;5.03;;;9.10;99.90;;;;;;5020284;28;20419;-71
2023/01/04 03:16:54;;;;;;;8.63;4.85;;;8.90;99.90;;;;;;5028421;28;20033;-70
2023/01/04 03:35:21;;;;;;;10.50;5.45;;;9.30;99.90;;;;;;5014738;28;20045;-72
2023/01/04 03:36:25;;;;;;;14.20;7.60;;;9.60;99.90;;;;;;5031748;28;20510;-73
2023/01/04 03:50:31;;;;;;;20.60;10.45;;;10.30;99.90;;;;;;5032111;28;20073;-69
2023/01/04 03:52:58;;;;;;;15.63;10.32;;;10.30;99.90;;;;;;5019695;28;20038;-69
2023/01/04 03:55:26;;;;;;;16.00;8.98;;;10.40;99.90;;;;;;5024569;28;20045;-69
2023/01/04 03:57:52;;;;;;;18.38;8.93;;;10.00;99.90;;;;;;5024504;28;20045;-69
2023/01/04 04:00:18;;;;;;;20.25;8.77;;;10.50;99.90;;;;;;5032006;28;20099;-70
2023/01/04 04:02:46;;;;;;;17.38;8.73;;;10.00;99.90;;;;;;5012558;28;20048;-69
2023/01/04 04:10:49;;;;;;;17.27;8.15;;;9.80;99.90;;;;;;5031706;28;20080;-69
2023/01/04 04:13:15;;;;;;;20.42;8.88;;;10.50;99.90;;;;;;5017837;28;20041;-70
2023/01/04 04:15:40;;;;;;;17.45;7.88;;;10.50;99.90;;;;;;5031984;28;20566;-68
2023/01/04 04:18:06;;;;;;;14.88;7.78;;;10.20;99.90;;;;;;5013135;28;20037;-68
2023/01/04 04:20:32;;;;;;;14.40;7.45;;;10.40;99.90;;;;;;5030890;28;20041;-68
2023/01/04 04:22:57;;;;;;;14.18;6.95;;;10.40;99.90;;;;;;5031655;28;20037;-67
2023/01/04 04:25:23;;;;;;;14.40;7.65;;;;;;;;;;5031649;28;20049;-69
2023/01/04 04:27:49;;;;;;;15.30;7.53;;;10.40;99.90;;;;;;5030940;28;20102;-68
2023/01/04 04:30:15;;;;;;;17.52;8.45;;;10.00;99.90;;;;;;5031664;28;20033;-69
2023/01/04 04:32:41;;;;;;;14.32;8.50;;;10.50;99.90;;;;;;5031408;28;20046;-69
2023/01/04 04:35:07;;;;;;;15.45;9.43;;;10.40;99.90;;;;;;5031153;28;20064;-68
2023/01/04 04:37:33;;;;;;;16.48;7.53;;;10.50;99.90;;;;;;5030623;28;20138;-68
2023/01/04 04:40:00;;;;;;;19.67;8.90;;;10.00;99.90;;;;;;5031211;28;20056;-68
2023/01/04 04:42:25;;;;;;;18.38;8.55;;;10.70;99.90;;;;;;5020562;28;20091;-72
2023/01/04 04:44:51;;;;;;;14.73;8.45;;;9.90;99.90;;;;;;5023504;28;20037;-71
2023/01/04 04:47:17;;;;;;;18.08;9.15;;;10.70;99.90;;;;;;5000527;28;20518;-71
2023/01/04 04:49:42;;;;;;;19.13;7.63;;;10.30;99.90;;;;;;5031065;28;20034;-70
2023/01/04 04:52:08;;;;;;;19.20;8.02;;;10.60;99.90;;;;;;5008892;28;20040;-68
2023/01/04 04:54:34;;;;;;;19.08;8.40;;;10.80;99.90;;;;;;5011874;28;20123;-68
2023/01/04 04:56:59;;;;;;;17.40;7.35;;;10.50;99.90;;;;;;5030618;28;20037;-70
2023/01/04 04:59:25;;;;;;;15.13;6.38;;;10.30;99.90;;;;;;5030928;28;20038;-70
2023/01/04 05:01:51;;;;;;;9.45;4.47;;;10.70;99.90;;;;;;5030789;28;20091;-69
2023/01/04 05:04:18;;;;;;;11.77;5.72;;;10.50;99.90;;;;;;5028511;28;20030;-71
2023/01/04 05:06:45;;;;;;;12.45;4.35;;;10.30;99.90;;;;;;5026947;28;20415;-72
2023/01/04 05:09:12;;;;;;;11.90;5.65;;;;;;;;;;5026218;28;20072;-73
2023/01/04 05:14:22;;;;;;;11.02;5.63;;;10.80;99.90;;;;;;5012392;28;20045;-70
2023/01/04 05:16:48;;;;;;;14.45;5.68;;;10.20;99.90;;;;;;5012810;28;20044;-71
2023/01/04 05:19:13;;;;;;;9.07;4.50;;;10.50;99.90;;;;;;5030340;28;20069;-70
2023/01/04 05:21:39;;;;;;;12.48;4.55;;;10.30;99.90;;;;;;5030479;28;20077;-70
2023/01/04 05:24:06;;;;;;;9.25;4.07;;;10.60;99.90;;;;;;4996514;28;20418;-70
2023/01/04 05:26:32;;;;;;;8.70;4.45;;;10.90;99.90;;;;;;5030284;28;20076;-71
2023/01/04 05:28:57;;;;;;;8.82;3.88;;;10.70;99.90;;;;;;5030088;28;20029;-70
2023/01/04 05:31:24;;;;;;;9.48;3.78;;;10.30;99.90;;;;;;5030408;28;20121;-69
2023/01/04 05:33:50;;;;;;;9.05;3.47;;;11.10;99.90;;;;;;5012871;28;20180;-71
2023/01/04 05:36:15;;;;;;;9.13;4.00;;;10.10;99.90;;;;;;5027478;28;20112;-70
2023/01/04 05:38:41;;;;;;;6.82;3.03;;;10.60;99.90;;;;;;5011834;28;20419;-71
2023/01/04 05:43:51;;;;;;;8.40;3.77;;;10.90;99.90;;;;;;5027882;28;20116;-71
2023/01/04 05:46:16;;;;;;;9.73;4.97;;;10.50;99.90;;;;;;5012574;28;20590;-70
2023/01/04 05:48:42;;;;;;;12.52;4.97;;;10.30;99.90;;;;;;5031157;28;20136;-70
2023/01/04 05:51:07;;;;;;;15.35;6.40;;;11.10;99.90;;;;;;5029986;28;20040;-71
2023/01/04 05:53:33;;;;;;;14.98;5.93;;;11.10;99.90;;;;;;5030157;28;20044;-70
2023/01/04 05:55:59;;;;;;;13.32;6.88;;;10.10;99.90;;;;;;5030168;28;20244;-71
2023/01/04 05:58:24;;;;;;;18.08;5.40;;;10.30;99.90;;;;;;5029374;28;20509;-70
2023/01/04 06:00:50;;;;;;;14.73;6.43;;;10.60;99.90;;;;;;4995129;28;20029;-71
2023/01/04 06:03:16;;;;;;;15.90;5.35;;;10.60;99.90;;;;;;4995405;28;20527;-71
2023/01/04 06:05:41;;;;;;;11.35;4.93;;;10.80;99.90;;;;;;5029200;28;20037;-70
2023/01/04 06:08:07;;;;;;;16.17;5.72;;;10.40;99.90;;;;;;5011963;28;20029;-70
2023/01/04 06:10:32;;;;;;;13.13;5.53;;;10.70;99.90;;;;;;5030073;28;20037;-71
2023/01/04 06:12:58;;;;;;;25.30;6.35;;;10.90;99.90;;;;;;5030037;28;20120;-71
2023/01/04 06:15:24;;;;;;;13.45;4.97;;;10.70;99.90;;;;;;5029205;28;20045;-72
2023/01/04 06:17:49;;;;;;;13.85;5.80;;;10.60;99.90;;;;;;5004529;28;20037;-72
2023/01/04 06:20:15;;;;;;;14.43;4.43;;;10.60;99.90;;;;;;5030163;28;20061;-71
2023/01/04 06:22:41;;;;;;;13.68;4.95;;;10.20;99.90;;;;;;5011387;28;20537;-72
2023/01/04 06:25:08;;;;;;;15.98;3.88;;;10.00;99.90;;;;;;5030169;28;20048;-70
2023/01/04 06:27:34;;;;;;;18.30;4.43;;;;;;;;;;5011585;28;20125;-72
2023/01/04 06:29:59;;;;;;;15.50;4.25;;;10.10;99.90;;;;;;5029652;28;20044;-71
2023/01/04 06:32:25;;;;;;;13.07;3.92;;;10.30;99.90;;;;;;5016608;28;20045;-71
2023/01/04 06:34:51;;;;;;;12.88;4.00;;;10.20;99.90;;;;;;5008711;28;20129;-70
2023/01/04 06:37:17;;;;;;;13.00;4.03;;;10.00;99.90;;;;;;5029003;28;20442;-68
2023/01/04 06:39:43;;;;;;;13.57;4.22;;;;;;;;;;5029675;28;20045;-68
2023/01/04 06:42:43;;;;;;;16.20;4.38;;;10.60;99.90;;;;;;5015811;28;20091;-68
2023/01/04 06:44:54;;;;;;;19.45;4.72;;;10.80;99.90;;;;;;5029428;28;20042;-69
2023/01/04 06:47:20;;;;;;;22.90;4.90;;;11.10;99.90;;;;;;5028797;28;20044;-68
2023/01/04 06:49:45;;;;;;;17.75;5.20;;;10.70;99.90;;;;;;5029409;28;20410;-68
2023/01/04 06:52:11;;;;;;;16.80;4.15;;;;;;;;;;5024283;28;20034;-68
2023/01/04 06:54:37;;;;;;;16.25;4.10;;;10.20;99.90;;;;;;5028266;28;20049;-68
2023/01/04 06:57:03;;;;;;;14.43;5.15;;;10.60;99.90;;;;;;5024199;28;20164;-68
2023/01/04 06:59:28;;;;;;;18.23;5.05;;;11.00;99.90;;;;;;5029332;28;20132;-68
2023/01/04 07:01:54;;;;;;;18.17;5.25;;;11.00;99.90;;;;;;5008142;28;20389;-68
2023/01/04 07:04:19;;;;;;;20.05;6.18;;;10.80;99.90;;;;;;5016440;28;20034;-68
2023/01/04 07:06:45;;;;;;;18.45;4.97;;;10.70;99.90;;;;;;5029491;28;20038;-68
2023/01/04 07:09:10;;;;;;;15.90;5.95;;;10.40;99.90;;;;;;4983064;28;20057;-68
2023/01/04 07:11:36;;;;;;;17.92;5.25;;;10.80;99.90;;;;;;5014587;28;20033;-68
2023/01/04 07:14:02;;;;;;;19.85;7.15;;;10.70;99.90;;;;;;5032938;28;20037;-69
2023/01/04 07:16:27;;;;;;;21.45;6.65;;;10.30;99.90;;;;;;5022595;28;20092;-69
2023/01/04 07:18:53;;;;;;;18.77;6.47;;;10.90;99.90;;;;;;5032559;28;20037;-69
2023/01/04 07:21:18;;;;;;;18.67;5.63;;;10.40;99.90;;;;;;5030889;28;20418;-70
2023/01/04 07:23:44;;;;;;;23.55;5.47;;;10.60;99.90;;;;;;5010756;28;20120;-70
2023/01/04 07:26:10;;;;;;;16.58;5.60;;;10.50;99.90;;;;;;5028798;28;20036;-70
2023/01/04 07:31:19;;;;;;;24.50;6.80;;;10.50;99.90;;;;;;5016427;28;20046;-70
2023/01/04 07:33:48;;;;;;;23.63;5.78;;;10.50;99.90;;;;;;5030342;28;20283;-69
2023/01/04 07:36:14;;;;;;;27.50;6.63;;;10.70;99.90;;;;;;5023684;28;20072;-69
2023/01/04 07:38:39;;;;;;;21.98;5.75;;;10.90;99.90;;;;;;5012313;28;20069;-70
2023/01/04 07:41:05;;;;;;;24.30;5.53;;;11.50;99.90;;;;;;5003441;28;20445;-70
2023/01/04 07:43:30;;;;;;;23.20;7.07;;;10.10;99.90;;;;;;5018893;28;20058;-70
2023/01/04 07:45:56;;;;;;;20.48;6.18;;;10.80;99.90;;;;;;5010889;28;20072;-70
2023/01/04 07:48:22;;;;;;;31.88;6.43;;;10.90;99.90;;;;;;4999960;28;20053;-69
2023/01/04 07:50:49;;;;;;;17.42;5.55;;;10.10;99.90;;;;;;5006628;28;20395;-69
2023/01/04 07:53:14;;;;;;;16.98;4.88;;;10.80;99.90;;;;;;5026221;28;20038;-71
2023/01/04 07:55:40;;;;;;;19.08;6.90;;;10.60;99.90;;;;;;5020265;28;20056;-71
2023/01/04 07:58:05;;;;;;;14.50;4.70;;;11.00;99.90;;;;;;4997783;28;20046;-72
2023/01/04 08:00:31;;;;;;;18.67;5.43;;;10.80;99.90;;;;;;5008790;28;20410;-71
2023/01/04 08:02:57;;;;;;;18.55;5.28;;;11.00;99.90;;;;;;5015173;28;20510;-71
2023/01/04 08:05:24;;;;;;;19.90;5.20;;;11.00;99.90;;;;;;5025105;28;20041;-71
2023/01/04 08:07:50;;;;;;;13.73;4.00;;;10.70;99.90;;;;;;5013729;28;20479;-71
2023/01/04 08:10:16;;;;;;;22.00;5.88;;;;;;;;;;5025769;28;20529;-72
2023/01/04 08:12:41;;;;;;;16.77;4.78;;;10.50;99.90;;;;;;5012374;28;20714;-71
2023/01/04 08:15:07;;;;;;;18.20;5.10;;;10.90;99.90;;;;;;5021090;28;20068;-71
2023/01/04 08:17:33;;;;;;;18.20;4.85;;;10.90;99.90;;;;;;5028107;28;20038;-71
2023/01/04 08:20:00;;;;;;;16.63;4.70;;;10.30;99.90;;;;;;5011862;28;20539;-69
2023/01/04 08:22:26;;;;;;;27.63;6.60;;;10.40;99.90;;;;;;5027201;28;20034;-70
2023/01/04 08:24:51;;;;;;;17.17;5.30;;;10.50;99.90;;;;;;5027057;28;20056;-70
2023/01/04 08:27:17;;;;;;;16.08;4.47;;;10.70;99.90;;;;;;5026520;28;20041;-70
2023/01/04 08:29:43;;;;;;;17.20;5.53;;;;;;;;;;5029858;28;20033;-69
2023/01/04 08:32:08;;;;;;;18.48;5.13;;;10.50;99.90;;;;;;5031469;28;20125;-69
2023/01/04 08:34:34;;;;;;;24.45;5.13;;;10.80;99.90;;;;;;5022420;28;20073;-69
2023/01/04 08:37:00;;;;;;;21.35;4.75;;;10.80;99.90;;;;;;5018534;28;20096;-69
2023/01/04 08:39:28;;;;;;;22.13;5.57;;;10.80;99.90;;;;;;5031096;28;20042;-70
2023/01/04 08:41:54;;;;;;;20.52;4.90;;;11.30;99.90;;;;;;5028128;28;20690;-70
2023/01/04 08:44:22;;;;;;;24.23;5.97;;;10.80;99.90;;;;;;5011030;28;20044;-69
2023/01/04 08:46:49;;;;;;;23.90;5.28;;;11.00;99.90;;;;;;5002648;28;20056;-69
2023/01/04 08:49:15;;;;;;;22.20;6.65;;;;;;;;;;5026787;28;20079;-70
2023/01/04 08:51:41;;;;;;;12.43;4.47;;;10.40;99.90;;;;;;5026156;28;20422;-68
2023/01/04 08:54:07;;;;;;;24.88;6.07;;;11.60;99.90;;;;;;5008780;28;20527;-69
2023/01/04 08:56:33;;;;;;;29.13;6.50;;;10.90;99.90;;;;;;5019486;28;20082;-69
2023/01/04 08:59:00;;;;;;;18.70;5.03;;;11.20;99.90;;;;;;5022666;28;20076;-68
2023/01/04 09:01:25;;;;;;;26.27;6.85;;;10.80;99.90;;;;;;5029445;28;20138;-68
2023/01/04 09:03:51;;;;;;;29.83;6.32;;;11.70;99.90;;;;;;5021043;28;20455;-68
2023/01/04 09:06:17;;;;;;;24.95;6.25;;;10.30;99.90;;;;;;5026155;28;20034;-68
2023/01/04 09:08:43;;;;;;;23.33;7.25;;;11.30;99.90;;;;;;5020852;28;20029;-69
2023/01/04 09:11:15;;;;;;;26.98;6.05;;;11.40;99.90;;;;;;5025259;28;20116;-68
2023/01/04 09:13:42;;;;;;;29.55;6.40;;;11.20;99.90;;;;;;5022177;28;20158;-68
2023/01/04 09:16:13;;;;;;;19.40;4.75;;;11.00;99.90;;;;;;5023475;28;20572;-68
2023/01/04 09:18:39;;;;;;;22.05;6.15;;;11.50;99.90;;;;;;5024167;28;20037;-68
2023/01/04 09:21:13;;;;;;;19.90;4.63;;;11.10;99.90;;;;;;5005141;28;20034;-68
2023/01/04 09:23:39;;;;;;;26.83;6.35;;;11.00;99.90;;;;;;5019470;28;20159;-68
2023/01/04 09:26:07;;;;;;;29.10;6.50;;;11.60;99.90;;;;;;5019559;28;20124;-67
2023/01/04 09:28:32;;;;;;;30.90;7.25;;;11.10;99.90;;;;;;5021442;28;20479;-68
2023/01/04 09:31:03;;;;;;;31.45;7.20;;;11.10;99.90;;;;;;5020484;28;20076;-68
2023/01/04 09:33:28;;;;;;;43.00;7.28;;;11.30;99.90;;;;;;5008486;28;20113;-68
2023/01/04 09:35:54;;;;;;;25.83;7.22;;;10.90;99.90;;;;;;5029351;28;20120;-67
2023/01/04 09:38:19;;;;;;;25.48;5.93;;;11.20;99.90;;;;;;5021834;28;20104;-68
2023/01/04 09:41:05;;;;;;;24.92;6.57;;;11.10;99.90;;;;;;5024957;28;20041;-67
2023/01/04 09:43:49;;;;;;;35.60;9.30;;;11.80;99.90;;;;;;5007263;28;20064;-67
2023/01/04 09:46:25;;;;;;;35.60;7.47;;;11.40;99.90;;;;;;5024384;28;20053;-68
2023/01/04 09:48:55;;;;;;;19.17;5.90;;;11.10;99.90;;;;;;5007557;28;20058;-67
2023/01/04 09:51:25;;;;;;;22.40;5.65;;;;;;;;;;5018732;28;20128;-67
2023/01/04 09:53:56;;;;;;;25.45;5.95;;;;;;;;;;5015685;28;20452;-67
2023/01/04 09:56:32;;;;;;;28.25;7.15;;;11.40;99.90;;;;;;5023199;28;20132;-67
2023/01/04 09:59:00;;;;;;;20.38;5.90;;;11.60;99.90;;;;;;5025392;28;20513;-67
2023/01/04 10:01:44;;;;;;;17.42;6.43;;;11.60;99.90;;;;;;5026808;28;20522;-67
2023/01/04 10:04:34;;;;;;;26.07;5.30;;;10.80;99.90;;;;;;5027322;28;20048;-67
2023/01/04 10:07:00;;;;;;;26.55;5.85;;;11.90;99.90;;;;;;5023091;28;20272;-67
2023/01/04 10:09:26;;;;;;;24.58;6.57;;;11.60;99.90;;;;;;5021786;28;20689;-67
2023/01/04 10:12:21;;;;;;;21.02;5.53;;;11.40;99.90;;;;;;5024562;28;20116;-67
2023/01/04 10:14:50;;;;;;;;;;;11.70;99.90;;;;;;5023013;28;20172;-67
2023/01/04 10:17:53;;;;;;;22.65;4.78;;;11.90;99.90;;;;;;5027628;28;20295;-67
2023/01/04 10:20:59;;;;;;;22.20;7.57;;;11.60;99.90;;;;;;5025858;28;20041;-67
2023/01/04 10:23:38;;;;;;;26.08;6.10;;;11.40;99.90;;;;;;5023326;28;20061;-67
2023/01/04 10:26:42;;;;;;;23.25;6.78;;;11.60;99.90;;;;;;5023682;28;20451;-67
2023/01/04 10:29:26;;;;;;;37.72;6.68;;;11.80;99.90;;;;;;5010566;28;20792;-67
2023/01/04 10:32:20;;;;;;;22.02;6.82;;;11.70;99.90;;;;;;4999927;28;20038;-67
2023/01/04 10:34:47;;;;;;;24.83;5.20;;;11.80;99.90;;;;;;4999348;28;20061;-67
2023/01/04 10:37:17;;;;;;;29.45;6.63;;;12.00;99.90;;;;;;5021055;28;20040;-67
2023/01/04 10:39:44;;;;;;;26.38;7.20;;;11.30;99.90;;;;;;5021768;28;20060;-67
2023/01/04 10:42:39;;;;;;;27.75;8.02;;;11.30;99.90;;;;;;5028780;28;20040;-67
2023/01/04 10:45:05;;;;;;;25.60;6.93;;;11.70;99.90;;;;;;5022131;28;20629;-67
2023/01/04 10:47:43;;;;;;;26.88;5.88;;;11.50;99.90;;;;;;5011957;28;20042;-67
2023/01/04 10:50:17;;;;;;;22.58;6.72;;;11.60;99.90;;;;;;5019613;28;20449;-67
2023/01/04 10:52:58;;;;;;;33.08;6.85;;;12.20;99.90;;;;;;5020175;28;20045;-67
2023/01/04 10:55:51;;;;;;;21.48;5.25;;;11.20;99.90;;;;;;5009428;28;20503;-67
2023/01/04 10:58:32;;;;;;;18.00;4.78;;;11.70;99.90;;;;;;5019275;28;20057;-66
2023/01/04 11:01:27;;;;;;;20.23;4.88;;;11.30;99.90;;;;;;5003581;28;20475;-67
2023/01/04 11:04:01;;;;;;;21.25;4.30;;;11.40;99.90;;;;;;5018285;28;20452;-67
2023/01/04 11:06:33;;;;;;;15.57;4.67;;;11.70;99.90;;;;;;5027577;28;20462;-66
2023/01/04 11:09:08;;;;;;;22.63;5.05;;;12.10;99.90;;;;;;5027137;28;20117;-66
2023/01/04 11:11:55;;;;;;;;;;;11.50;99.90;;;;;;5027490;28;20083;-66
2023/01/04 11:14:21;;;;;;;27.35;7.18;;;11.40;99.90;;;;;;5029694;28;19917;-67
2023/01/04 11:16:50;;;;;;;31.13;6.80;;;11.80;99.90;;;;;;5028269;28;20125;-66
2023/01/04 11:19:16;;;;;;;28.23;7.88;;;11.40;99.90;;;;;;5020613;28;20041;-67
2023/01/04 11:21:51;;;;;;;29.80;6.32;;;11.90;99.90;;;;;;5030203;28;20038;-66
2023/01/04 11:24:17;;;;;;;35.45;9.23;;;11.40;99.90;;;;;;5035020;28;20082;-66
2023/01/04 11:26:44;;;;;;;36.53;6.82;;;;;;;;;;5019761;28;20033;-66
2023/01/04 11:29:32;;;;;;;35.65;7.55;;;11.70;99.90;;;;;;5029649;28;20466;-66
2023/01/04 11:32:05;;;;;;;25.50;8.75;;;11.40;99.90;;;;;;5022422;28;20034;-66
2023/01/04 11:34:47;;;;;;;43.17;7.85;;;11.40;99.90;;;;;;5022074;28;20459;-66
2023/01/04 11:37:27;;;;;;;26.65;6.65;;;12.20;99.90;;;;;;5024697;28;20388;-66
2023/01/04 11:40:16;;;;;;;25.30;6.03;;;12.10;99.90;;;;;;5020797;28;20133;-66
2023/01/04 11:42:47;;;;;;;20.52;6.22;;;12.00;99.90;;;;;;5021550;28;20049;-66
2023/01/04 11:45:20;;;;;;;22.75;5.35;;;11.70;99.90;;;;;;5025619;28;20041;-66
2023/01/04 11:47:53;;;;;;;22.00;6.15;;;;;;;;;;5009621;28;20037;-66
2023/01/04 11:50:43;;;;;;;23.63;6.80;;;12.10;99.90;;;;;;5009018;28;20042;-66
2023/01/04 11:53:36;;;;;;;24.95;5.18;;;11.90;99.90;;;;;;5026263;28;20088;-66
2023/01/04 11:56:11;;;;;;;25.90;7.05;;;11.30;99.90;;;;;;5022622;28;20104;-66
2023/01/04 11:58:36;;;;;;;15.32;4.75;;;11.60;99.90;;;;;;5024959;28;20038;-66
2023/01/04 12:01:02;;;;;;;17.48;5.22;;;12.10;99.90;;;;;;5025218;28;20041;-66
2023/01/04 12:03:36;;;;;;;22.80;5.47;;;12.20;99.90;;;;;;5034182;28;20510;-66
2023/01/04 12:06:10;;;;;;;18.65;4.55;;;12.20;99.90;;;;;;5030781;28;20117;-66
2023/01/04 12:08:36;;;;;;;19.43;4.53;;;12.20;99.90;;;;;;5032907;28;20044;-66
2023/01/04 12:11:05;;;;;;;24.95;5.50;;;12.20;99.90;;;;;;5031740;28;20034;-66
2023/01/04 12:13:32;;;;;;;13.40;3.22;;;12.00;99.90;;;;;;5030670;28;20128;-66
2023/01/04 12:16:00;;;;;;;22.58;4.93;;;12.90;99.90;;;;;;5028389;28;20035;-66
2023/01/04 12:18:29;;;;;;;15.60;4.88;;;11.50;99.90;;;;;;5011531;28;20052;-66
2023/01/04 12:20:56;;;;;;;18.92;5.28;;;12.00;99.90;;;;;;5028696;28;20033;-66
2023/01/04 12:23:22;;;;;;;15.55;4.00;;;11.90;99.90;;;;;;5029283;28;20069;-66
2023/01/04 12:25:51;;;;;;;21.17;5.03;;;12.00;99.90;;;;;;5033308;28;21669;-66
2023/01/04 12:28:37;;;;;;;14.30;3.95;;;11.30;99.90;;;;;;5028459;28;20037;-66
2023/01/04 12:31:18;;;;;;;18.88;4.88;;;11.70;99.90;;;;;;5027514;28;20033;-66
2023/01/04 12:33:45;;;;;;;12.38;3.58;;;11.60;99.90;;;;;;5029523;28;20037;-66
2023/01/04 12:36:34;;;;;;;24.58;4.25;;;12.30;99.90;;;;;;5011801;28;20041;-66
2023/01/04 12:39:02;;;;;;;16.00;4.97;;;11.80;99.90;;;;;;5028457;28;20590;-66
2023/01/04 12:41:33;;;;;;;21.13;5.35;;;11.80;99.90;;;;;;5029229;28;20034;-65
2023/01/04 12:44:00;;;;;;;17.58;4.80;;;11.50;99.90;;;;;;5026364;28;20112;-65
2023/01/04 12:49:27;;;;;;;13.80;3.60;;;11.60;99.90;;;;;;5028551;28;20045;-65
2023/01/04 12:52:08;;;;;;;13.98;3.65;;;11.60;99.90;;;;;;5029275;28;20045;-65
2023/01/04 12:54:45;;;;;;;13.93;4.40;;;;;;;;;;5029324;28;20051;-66
2023/01/04 12:57:17;;;;;;;16.50;4.32;;;11.30;99.90;;;;;;5028467;28;20044;-66
2023/01/04 12:59:59;;;;;;;14.95;3.28;;;11.80;99.90;;;;;;5029845;28;20095;-66
2023/01/04 13:02:28;;;;;;;14.68;4.10;;;;;;;;;;5028364;28;20041;-66
2023/01/04 13:05:22;;;;;;;22.27;5.25;;;11.30;99.90;;;;;;5028549;28;20073;-66
2023/01/04 13:07:58;;;;;;;21.70;4.30;;;11.80;99.90;;;;;;5009480;28;20046;-66
2023/01/04 13:10:30;;;;;;;16.23;4.53;;;12.00;99.90;;;;;;5029702;28;20122;-66
2023/01/04 13:13:14;;;;;;;17.92;4.70;;;12.20;99.90;;;;;;5004160;28;20128;-66
2023/01/04 13:15:58;;;;;;;28.00;5.60;;;11.20;99.90;;;;;;5013075;28;20041;-66
2023/01/04 13:18:43;;;;;;;24.60;6.32;;;12.20;99.90;;;;;;5018338;28;20490;-66
2023/01/04 13:21:28;;;;;;;;;;;12.10;99.90;;;;;;5024473;28;20116;-66
2023/01/04 13:23:56;;;;;;;16.02;4.65;;;11.90;99.90;;;;;;5027126;28;19922;-66
2023/01/04 13:26:30;;;;;;;28.05;5.30;;;11.60;99.90;;;;;;4998369;28;20499;-66
2023/01/04 13:29:11;;;;;;;18.77;5.18;;;11.40;99.90;;;;;;5018457;28;20053;-66
2023/01/04 13:31:56;;;;;;;27.20;7.95;;;11.30;99.90;;;;;;5027929;28;20564;-66
2023/01/04 13:35:02;;;;;;;26.27;5.22;;;12.00;99.90;;;;;;5005037;28;20050;-66
2023/01/04 13:37:50;;;;;;;24.77;5.75;;;11.80;99.90;;;;;;5016063;28;20041;-66
2023/01/04 13:40:18;;;;;;;22.83;5.35;;;11.70;99.90;;;;;;5025293;28;20043;-66
2023/01/04 13:42:50;;;;;;;31.42;7.45;;;11.70;99.90;;;;;;5019560;28;20041;-66
2023/01/04 13:45:52;;;;;;;27.65;5.60;;;11.50;99.90;;;;;;4997903;28;20047;-66
2023/01/04 13:48:21;;;;;;;19.35;5.60;;;11.50;99.90;;;;;;5020238;28;20049;-66
2023/01/04 13:51:14;;;;;;;20.42;5.63;;;11.80;99.90;;;;;;5017914;28;20029;-66
2023/01/04 13:53:40;;;;;;;22.27;5.07;;;12.10;99.90;;;;;;5014280;28;20038;-66
2023/01/04 13:56:19;;;;;;;22.42;5.95;;;11.70;99.90;;;;;;5004088;28;20410;-66
2023/01/04 13:58:44;;;;;;;22.70;6.40;;;11.60;1.00;;;;;;5013719;28;20034;-66
2023/01/04 14:01:10;;;;;;;18.40;3.92;;;11.70;1.00;;;;;;5021267;28;20034;-66